Timeline UpdatesTrip UpdatesNews PostsPvt Posts♥♥Travel TipsAdmin PostsConv PostsFollowed PostsChat RequestsBlog PostsPNR Posts

Disclaimer
Search
 
 
Sat Oct 25, 2014 18:13:56 ISTHomeTrainsΣChainsAtlasPNRForumGalleryNewsFAQTripsMembersLoginFeedback
No Recent News for this Train
Other Trains in the News **new
Latest...
Discontinued from 1/9/14 #1193229
Thu Aug 21, 2014 (09:08PM)
⇐ Return Journey: Train# 13040

13039/Howrah-Delhi Janta Express (UnReserved)

TRAIN IS CANCELLED
Change Departure Station:
Change Arrival Station:
Post a Train Travel TipPost a Train Travel Tip **new
Post a Comment/Question/Picture/VideoPost a Comment/Question/Picture/Video
Inaugural Run
Tue Oct 01, 1946
Pantry/Catering
✕ NO Pantry Car
✕ NO Catering
RSA - Rake Sharing
Rake/Coach Composition
2 SLR, 5 General Class, and 5-7 HCPV proceeds to Delhi from Bakhtiyarpur.; 2 Sleeper class coaches and general coaches are attached at Bakhtiyarpur to 53232 Danapur-Tilaiya Passenger to run combined upto Rajgir (13039 - Slip); [Loco-SLR-HCPV-HCPV-HCPV-HCPV-HCPV-(HCPV-HCPV)-General-General]-[General-General-General-General-General-SLR-Sleeper-Sleeper]
Loco
Zahaib Entry# 624182 Loco: HWH WAP4
News    PNR    Forum    Time-Table    Availability    Fare Chart    Map    Arr/Dep History    Trips    Gallery    ΣChains    X/O    Timeline    
Travel Time: 4h 1m    7 halts    Distance: 238 km    Avg Speed: 59 km/hr
Type: Mail/Express
Zone: ER/Eastern
Departs @ 20:20 (Avg 3m late)
Platform# 8
SMTWTFS
Kolkata Howrah Junction/HWH 
Arrives @ 00:21 +1 night (Avg 28m late)
Platform# 3
SMTWTFS
Chittaranjan/CRJ 

7 halts. 61 intermediate Stations between Kolkata Howrah Junction and Chittaranjan

Show ALL intermediate Stations  

#TrkCodeStation NameX/OArrivesAvgDepartsAvgHaltPFDay#KmSpeedElevZoneAddress
1/==/HWHKolkata Howrah Junction (23)»  -20:20+3810.05610mERHowrah 711101, West Bengal
2/==/SRPSerampore (4)  20:41+920:42+121m--119.54711mERdist - hooghly, West Bengal
3/==/CGRChandan Nagar (3)  20:59+821:00+121m--132.72416mERDist -HOOGHLY - 712136, West Bengal
4/==/BDCBandel Junction (7)  21:17+621:22+85m--139.57514mERdist - HOOGHLY, West Bengal
5/==/BWNBarddhaman Junction (8)  22:16+722:21+55m--1106.78134mERDist - Barddhaman, West Bengal
6/==/DGRDurgapur (5)  23:08+1123:10+112m--1170.37371mERDurgapur, West Bengal
7/==/RNGRaniGanj (4)  23:30+1923:31+251m--1194.65292mERRaniganj, West Bengal
8/==/ASNAsansol Junction (7)  23:52+1723:57+245m--1212.763113mERDist - Bardhaman, West Bengal
9/==/CRJChittaranjan (3)•  00:21+2800:22+291m32237.866182mERMihijam, Jharkhand
10/==/MDPMadhupur Junction (4)  01:13+2701:18+265m--2294.273254mER06432-224478, Jharkhand
11/==/JSMEJasidih Junction (5)  01:42+2301:47+225m--2323.380271mERJasidih, Jharkhand
12/==/STLSimultala (2)  02:06+2802:07+291m--2348.730247mERSimultala, Bihar
13/==/JAJJhajha (4)  02:45+1102:50+145m--2367.462143mECRJhajha, Bihar
14/==/GHRGidhaur (2)  03:01+2103:02+231m--2378.867106mECRState Highway 18, Bihar
15/==/JMUJamui (2)  03:15+2403:16+251m--2393.49481mECRState Highway 72, Bihar
16/==/BFMBhalui (2)  03:25+3003:26+301m--2407.55463mECRState Highway 18, Bihar
17/==/MNPMananpur (2)  03:33+3203:34+391m--2413.81757mECRState Highway 18, Bihar
18/==/BSQPBansipur (2)  03:43+3803:44+411m--2416.32453mECRKiul, Bihar
19/==/KIULKiul Junction (5)  03:55+4103:57+492m--2420.71053mECRDist. Lakhisarai, Bihar
20/==/LKRLuckeesarai Junction (2)  04:05+4904:06+501m--2422.04852mECRLakhisarai, Bihar
21/==/MKBMankatha  04:13+5004:14+551m--2427.63147mECRNational Highway 80, Bihar
22/==/DMRXDumri Halt (1)  04:24-04:25-1m12432.8849mECRNational Highway 80, Bihar
23/==/BRYABarhiya (3)  04:57+2604:58+271m--2437.15647mECRBarahiya, Bihar
24/==/RDUMRampur Dumra (3)  05:04+2905:05+301m--2442.73346mECRNational Highway 80, Bihar
25/==/HTZHathidah Junction (2)  05:12+2805:13+291m22446.54550mECRMusahari, Bihar
26/==/ANAHAunta Halt  05:19-05:20-1m--2451.01444mECRPanchmahla, Bihar
27/--/MKAMokama Junction (4)  05:36+2105:38+212m--2454.94948mECRPatna, Bihar
28/==/MORMor (2)  05:47+2005:48+201m--2462.23246mECRMor, Bihar
29/==/KNHPKanhaipur (2)  05:54-05:55-1m--2465.43447mECRMor, Bihar
30/==/MMKBMemrakhabad (2)  05:59-06:00-1m--2467.73249mECRMor, Bihar
31/==/PHKPunarakh (2)  06:05+1606:06+161m--2470.46151mECRPunarakh, Bihar
32/==/BARHBarh (3)  06:16+1606:17+181m--2480.66149mECRBarh, Bihar
33/==/ATLAthmal Gola (2)  06:26+1606:27+171m--2489.74552mECRPatna, Bihar
34/==/BKPBakhtiyarpur Junction (5)06:39+1306:44+135m--2498.75351mECRPatna, Bihar
35/==/TKBGTeka Bigha Halt  06:49-06:50-1m--2503.13251mECRTeka Bigha, Bihar
36/==/SMBHSalim Pur Bihar  06:54-06:55-1m--2505.33654mECRSalim Pur, Bihar
37/==/KWOKarauta (2)  06:59+407:00+51m--2507.75052mECRKarauta, Bihar
38/==/KOOKhusropur (2)  07:07+1307:08+141m--2513.55652mECRPatna, Bihar
39/==/FUTFatwa (6)  07:17+1607:18+171m--2522.04653mECRPatna, Bihar
40/==/BKGBanka Ghat (2)  07:26+1807:27+191m--2528.16156mECRPatna, Bihar
41/==/PNCPatna Saheb (3)  07:33+1907:34+201m--2534.22659mECRPatna 800008, Bihar
42/==/GZHGulzarbagh (3)  07:41+1807:42+211m--2537.22855mECRPatna, Bihar
43/==/RJPBRajendra Nagar Bihar (4)  07:51+2007:53+202m--2541.5755mECRPatna 800001, Bihar
44/==/PNBEPatna Junction (10)  08:15+608:25+1010m--2544.13857mECRPatna 800001, Bihar
45/==/DNRDanapur (5)  08:40+1908:50+1910m--2553.56058mECRKhagaul, Bihar
46/==/NEONeora (2)  08:56+2108:57+221m--2559.55361mECRNational Highway 98, Bihar
47/==/SDESadisopur (2)  09:05-09:06-1m--2566.63664mECRSadisopur, Bihar
48/==/BTABihta (2)  09:13+2009:14+211m--2570.84062mECRDistt: Patna, Bihar
49/==/KWRKoelwar (2)  09:27-09:28-1m--2579.64365mECRNational Highway 30, Bihar
50/==/KUAKulharia (2)  09:33+1809:34+211m--2583.14261mECRChandi Sahar Rd, Bihar
51/==/ARAAra Junction (3)  09:48+1709:53+185m--2593.06663mECRDistt: Bhojpur Ph 06182-233411, Bihar
52/==/KRSKarisath (2)  10:02+2710:03+281m--2602.97765mECRKarisath, Bihar
53/==/BEABihiya (3)  10:12+3210:13+331m--2614.45967mECRBehea, Bihar
54/==/BYNBanahi (2)  10:19+3510:20+351m--2620.45967mECRBanahi, Bihar
55/==/RPRRaghunathpur (4)  10:29+3610:30+371m--2629.26369mECRRaghunathpur, Bihar
56/==/TWGTwining Ganj  10:38+3810:39+391m--2637.63370mECRArrah Buxar Rd, Bihar
57/==/DUREDumraon (3)  10:53+3610:54+361m--2645.25270mECRDumraon, Bihar
58/==/BXRBuxar (3)  11:13+2311:17+244m--2661.57367mECRBuxar, Bihar
59/==/CSAChausa (2)  11:26+3111:27+321m--2672.54368mECRState Highway 14, Bihar
60/==/GMRGahmar (2)  11:40+2911:41+301m--2681.76168mECRDistt: Ghazipur, Uttar Pradesh
61/==/BWHBhadaura (2)  11:49+3211:50+331m--2689.95269mECRGhazipur, Uttar Pradesh
62/==/DLNDildarnagar Junction (2)  11:59+2512:04+255m--2697.78172mECRDildarnagar, Uttar Pradesh
63/==/ZNAZamania (2)  12:14+3012:15+321m--2711.210477mECRGhazipur, Uttar Pradesh
64/==/SLDSakaldiha (2)  12:30+4312:31+541m--2737.21281mECRState Highway 69, Uttar Pradesh
65/==/MGSMughal Sarai Junction (8)  14:02+814:17+815m62755.42183mECRDistt: Chandauli Pin 232101, Uttar Pradesh
66/==/ARWAhraura Road (4)  14:56+1314:57+281m--2769.25185mNCRDist. Mirzapur - 231305, Uttar Pradesh
67/==/KYTKailahat (4)  15:07+3015:08+331m--2777.74783mNCRKailahat, Uttar Pradesh
68/--/CARChunar Junction (5)  15:20+4015:22+532m32787.24985mNCRChunar Junction, Uttar Pradesh
69/==/MZPMirzapur (3)  16:00+1:0916:05+1:125m--2818.55588mNCRMirzapur, Uttar Pradesh
70/==/BDLVindhyachal (3)  16:13+1:2016:15+1:252m32825.84988mNCRMirzapur, Uttar Pradesh
71/==/GAEGaipura (4)  16:30+1:4416:31+1:511m--2838.13486mNCRGaipura, Uttar Pradesh
72/==/JIAJigna (1)  16:43+1:5016:44+1:501m12845.06294mNCRNational Highway 76, Uttar Pradesh
73/==/MNFManda Road  16:52+1:5116:54+1:512m--2853.35493mNCRNH 76, Uttar Pradesh
74/==/UNDUnchdih  17:03+1:5017:04+1:511m--2861.47094mNCRUnchdih, Uttar Pradesh
75/==/MJAMeja Road (4)  17:11+1:5417:13+1:532m--2869.56894mNCRDistrict Allahabad, Uttar Pradesh
76/==/KCNKarchana  17:31+1:5217:32+2:061m--2889.95894mNCRKarchana, Uttar Pradesh
77/==/NYNNaini Junction (4)  17:43+2:2517:44+2:261m22900.52098mNCRAllahabad, Uttar Pradesh
78/==/ALDAllahabad Junction (10)  18:05+2:1018:15+2:1210m42907.622100mNCRAllahabad 211003, Uttar Pradesh
79/==/SFGSubedarGanj (3)  18:25+2:3818:26+2:381m--2911.450100mNCRAllahabad, Uttar Pradesh
80/==/BMUBamhrauli  18:32+2:4118:33+2:461m--2916.456102mNCRAllahabad, Uttar Pradesh
81/==/MREManauri  18:42+2:4918:43+2:501m--2924.820105mNCRSabderganj-Fatehpur Rd, Uttar Pradesh
82/==/SYWNSaiyid Sarawan  18:57+2:4418:58+2:461m--2929.445106mNCR212203 ?, Uttar Pradesh
83/==/MNJManoharGanj  19:08+2:4419:09+2:571m--2936.952104mNCRNational Highway 2, Uttar Pradesh
84/==/BREBharwari  19:18+2:5719:20+3:072m--2944.727108mNCRBharwari, Uttar Pradesh
85/==/BDNPBidanpur  19:29+3:0619:30+3:141m--2948.762106mNCRBidanpur, Uttar Pradesh
86/==/SJTShujaatpur  19:36+3:1519:37+3:171m--2955.066107mNCRNational Highway 2, Uttar Pradesh
87/==/SROSirathu (2)  19:46+3:1919:48+3:232m12964.862109mNCRSirathu, Uttar Pradesh
88/==/KGAKhaga (3)  20:12+3:3120:14+3:322m--2989.780114mNCRFatehpur, Uttar Pradesh
89/==/FTPFatehpur (3)  20:40+3:4720:45+3:555m--21024.374120mNCRFatehpur, Uttar Pradesh
90/==/MWHMalwan (2)  20:58+3:5621:00+4:052m--21040.583122mNCRFatehpur, Uttar Pradesh
91/==/BKOBindki Road  21:11+4:1221:13+4:492m--21055.626124mNCRFatehpur, Uttar Pradesh
92/==/CNBKanpur Central (10)  23:00+3:4323:10+3:5210m--21102.070128mNCRKANPUR-208 001, Uttar Pradesh
93/==/RURARura (4)  23:48+5:2723:50+5:442m--21146.371137mNCRJhinjhak, Uttar Pradesh
94/==/JJKJhinjhak (3)  00:06+5:3400:08+5:362m331165.370140mNCRAuraiya, Uttar Pradesh
95/==/PHDPhaphund (4)  00:25+5:3800:27+5:392m--31185.225146mNCRdist. Auraiya, Uttar Pradesh
96/==/ULDAchalda (3)  01:07+5:1301:09+5:142m--31201.973147mNCRDist. Auraiya(05688-1072), Uttar Pradesh
97/==/BNTBharthana (3)  01:25+5:1201:27+5:282m--31221.420147mNCRBharthana, Uttar Pradesh
98/==/ETWEtawah (5)  02:27+4:4002:32+4:445m231241.313154mNCRDistt. Etawah, Uttar Pradesh
99/==/JGRJaswantnagar (2)  03:46+4:0103:48+4:032m--31257.353154mNCRJaswantnagar, Uttar Pradesh
100/==/SKBShikohabad Junction (4)  04:33+4:1504:38+4:135m--31296.737166mNCRDistrict Firozabad, Uttar Pradesh
101/==/FZDFirozabad (4)  05:10+4:0105:15+4:065m331316.633164mNCRFirozabad, Uttar Pradesh
102/==/TDLTundla Junction (5)  05:45+3:3405:55+3:3810m--31333.155167mNCRDistt.Firozabad, Uttar Pradesh
103/--|BRNBarhan Junction  06:11+4:2606:12+4:261m--31347.872173mNCRJN Point-Tundle/Aligarh/Etah, Uttar Pradesh
104/==/JLSJalesar Road (1)  06:23+4:3006:24+4:331m131361.075172mNCRMDR 106W, Uttar Pradesh
105/==/HRSHathras Junction (3)  06:40+4:4106:45+4:395m--31381.160183mNCRMahamaya Nagar(05722-242803), Uttar Pradesh
106/==/SNSSasni (3)  06:54+4:3906:55+4:461m--31390.055185mNCRSasni, Uttar Pradesh
107/==/MXKMandrak (2)  07:03+4:4607:04+4:461m--31397.476190mNCRNational Highway 93, Uttar Pradesh
108/==/ALJNAligarh Junction (4)  07:15+4:4407:20+4:445m--31411.265192mNCRAligarh, Uttar Pradesh
109/==/KLAKulwa (2)  07:31+4:5907:32+4:591m--31423.268190mNCRAligarh, Uttar Pradesh
110/==/SOMSomna (2)  07:41+4:5907:42+4:591m--31433.368195mNCRNational Highway 91, Uttar Pradesh
111/==/DARDanwar (2)  07:51+5:0207:52+5:031m--31443.674198mNCRDanwar, Uttar Pradesh
112/==/KRJKhurja Junction (4)  08:01+5:1408:06+5:125m--31454.77199mNCRBulandshahr, Uttar Pradesh
113/==/SKQSikandarpur (2)  08:55+4:3108:56+4:311m--31460.467199mNCRMDR 70W, Uttar Pradesh
114/==/CHLChola (3)  09:04+4:3309:05+4:331m--31469.359204mNCRTahsil Bulandshahar, Uttar Pradesh
115/==/WAIRWair (2)  09:10+4:3709:11+4:391m131474.210203mNCRBulandshahr District, Uttar Pradesh
116/==/DKDEDankaur (3)  10:05+3:5410:06+3:541m--31483.238209mNCRShyam Nagar Mandi, Uttar Pradesh
117/==/GZBGhaziabad Junction (6)  11:00+3:2511:02+3:252m--31517.448217mNRGhaziabad, Uttar Pradesh
118/==/DSAShahdara Junction (4)  11:19+2:5811:21+2:572m--31531.016212mNRCircular Rd, Delhi NCT
119/==/DLIOld Delhi Junction (16)  11:45+3:11-1331537.3-219mNRNear Chandni Chowk Metro Station, Delhi NCT
Scroll to Top
Scroll to Bottom